Time;durP1;ratioP1;P1;durP2;ratioP2;P2;SDS_P1;SDS_P2;PMS_P1;PMS_P2;Temp;Humidity;BMP_temperature;BMP_pressure;BME280_temperature;BME280_humidity;BME280_pressure;Samples;Min_cycle;Max_cycle;Signal;HPM_P1;HPM_P2
2022/05/17 00:01:24;;;;;;;4.20;1.90;;;16.70;99.90;;;;;;5024626;28;20594;-54
2022/05/17 00:03:51;;;;;;;5.97;2.10;;;16.70;99.90;;;;;;5022557;28;20239;-54
2022/05/17 00:06:18;;;;;;;8.37;2.57;;;16.70;99.90;;;;;;5024118;28;20291;-54
2022/05/17 00:08:45;;;;;;;8.50;2.40;;;16.70;99.90;;;;;;5020863;28;20659;-54
2022/05/17 00:11:13;;;;;;;4.60;2.20;;;16.60;99.90;;;;;;5029065;28;20454;-54
2022/05/17 00:13:40;;;;;;;4.90;2.30;;;16.50;99.90;;;;;;5026947;28;20203;-55
2022/05/17 00:16:07;;;;;;;5.00;1.90;;;16.50;99.90;;;;;;5023710;28;20227;-54
2022/05/17 00:18:34;;;;;;;5.43;1.80;;;16.40;99.90;;;;;;5021327;28;20559;-54
2022/05/17 00:21:02;;;;;;;5.70;2.67;;;16.40;99.90;;;;;;5025572;28;20287;-54
2022/05/17 00:23:29;;;;;;;4.57;2.10;;;16.30;99.90;;;;;;5022979;28;20836;-53
2022/05/17 00:25:56;;;;;;;4.80;2.20;;;16.50;99.90;;;;;;5025825;28;20247;-53
2022/05/17 00:28:24;;;;;;;7.90;2.90;;;16.50;99.90;;;;;;5030697;28;20196;-53
2022/05/17 00:30:52;;;;;;;2.60;1.70;;;16.40;99.90;;;;;;5028815;28;20609;-54
2022/05/17 00:33:21;;;;;;;3.43;2.10;;;16.50;99.90;;;;;;5025895;28;20633;-54
2022/05/17 00:35:48;;;;;;;6.07;1.90;;;16.60;99.90;;;;;;5022501;28;20279;-54
2022/05/17 00:38:16;;;;;;;6.20;2.50;;;16.60;99.90;;;;;;5025235;28;20274;-53
2022/05/17 00:40:43;;;;;;;6.60;1.77;;;16.60;99.90;;;;;;5023668;28;20201;-54
2022/05/17 00:43:14;;;;;;;6.00;2.47;;;16.60;99.90;;;;;;5032661;28;20241;-53
2022/05/17 00:45:47;;;;;;;3.10;2.07;;;16.50;99.90;;;;;;5021348;28;21565;-53
2022/05/17 00:48:16;;;;;;;3.23;2.10;;;16.50;99.90;;;;;;5022418;28;20202;-54
2022/05/17 00:50:47;;;;;;;4.70;2.00;;;16.40;99.90;;;;;;5022845;28;20681;-53
2022/05/17 00:53:45;;;;;;;4.43;2.20;;;16.40;99.90;;;;;;5025694;28;20543;-53
2022/05/17 00:56:19;;;;;;;5.27;2.67;;;16.20;99.90;;;;;;5020544;28;20693;-54
2022/05/17 00:58:52;;;;;;;4.60;1.80;;;16.20;99.90;;;;;;5020424;28;20604;-54
2022/05/17 01:01:25;;;;;;;4.77;2.37;;;16.30;99.90;;;;;;5023735;28;20265;-53
2022/05/17 01:03:57;;;;;;;5.57;2.93;;;16.40;99.90;;;;;;5022760;28;20515;-54
2022/05/17 01:06:31;;;;;;;3.33;2.70;;;16.30;99.90;;;;;;5020545;28;20208;-54
2022/05/17 01:08:58;;;;;;;5.17;2.40;;;16.10;99.90;;;;;;5017769;28;20276;-54
2022/05/17 01:11:25;;;;;;;9.57;2.50;;;16.20;99.90;;;;;;5023804;28;20196;-54
2022/05/17 01:16:37;;;;;;;9.93;3.73;;;16.50;99.90;;;;;;5020536;28;20292;-53
2022/05/17 01:19:08;;;;;;;4.20;2.40;;;16.60;99.90;;;;;;5021751;28;20213;-54
2022/05/17 01:21:35;;;;;;;7.23;2.57;;;16.60;99.90;;;;;;5021556;28;20274;-52
2022/05/17 01:24:02;;;;;;;8.60;2.87;;;16.60;99.90;;;;;;5018612;28;20236;-53
2022/05/17 01:26:32;;;;;;;5.13;2.70;;;16.50;99.90;;;;;;5020372;28;20283;-54
2022/05/17 01:28:59;;;;;;;7.47;3.20;;;16.50;99.90;;;;;;5019930;28;20287;-54
2022/05/17 01:31:28;;;;;;;8.43;2.90;;;16.40;99.90;;;;;;5018533;28;20235;-54
2022/05/17 01:33:55;;;;;;;5.90;3.00;;;16.40;99.90;;;;;;5017189;28;20302;-54
2022/05/17 01:36:23;;;;;;;5.07;3.20;;;16.30;99.90;;;;;;5021955;28;20302;-54
2022/05/17 01:38:51;;;;;;;7.23;3.30;;;16.20;99.90;;;;;;5015347;28;20244;-53
2022/05/17 01:41:19;;;;;;;4.60;2.93;;;16.40;99.90;;;;;;5022170;28;20204;-54
2022/05/17 01:43:47;;;;;;;6.60;2.80;;;16.40;99.90;;;;;;5019899;28;20284;-54
2022/05/17 01:46:14;;;;;;;6.17;2.73;;;16.50;99.90;;;;;;5014043;28;20296;-53
2022/05/17 01:48:41;;;;;;;6.60;4.00;;;16.70;99.90;;;;;;5019560;28;20207;-54
2022/05/17 01:51:09;;;;;;;5.70;2.80;;;16.80;99.90;;;;;;5017887;28;20232;-53
2022/05/17 01:53:37;;;;;;;8.07;3.00;;;16.70;99.90;;;;;;5018748;28;20669;-53
2022/05/17 01:56:05;;;;;;;7.73;2.83;;;16.80;99.90;;;;;;5022624;28;20212;-52
2022/05/17 01:58:33;;;;;;;7.37;3.07;;;16.80;99.90;;;;;;5018469;28;20283;-53
2022/05/17 02:01:00;;;;;;;6.47;3.27;;;16.80;99.90;;;;;;5020957;28;20237;-55
2022/05/17 02:03:28;;;;;;;5.20;3.20;;;16.80;99.90;;;;;;5017739;28;20240;-54
2022/05/17 02:05:54;;;;;;;4.07;3.10;;;16.80;99.90;;;;;;5018667;28;20383;-54
2022/05/17 02:08:21;;;;;;;7.57;2.93;;;16.70;99.90;;;;;;5021518;28;20726;-54
2022/05/17 02:10:48;;;;;;;10.87;3.17;;;16.80;99.90;;;;;;5021123;28;20274;-54
2022/05/17 02:13:16;;;;;;;6.73;3.07;;;16.70;99.90;;;;;;5022102;28;20307;-54
2022/05/17 02:15:44;;;;;;;7.70;3.03;;;16.70;99.90;;;;;;5017074;28;20300;-54
2022/05/17 02:18:11;;;;;;;6.03;3.20;;;16.80;99.90;;;;;;5014567;28;20300;-53
2022/05/17 02:20:38;;;;;;;7.93;4.20;;;16.80;99.90;;;;;;5021732;28;20307;-53
2022/05/17 02:23:07;;;;;;;6.80;2.80;;;16.90;99.90;;;;;;5013618;28;20253;-54
2022/05/17 02:25:35;;;;;;;10.63;2.90;;;16.80;99.90;;;;;;5018045;28;20215;-54
2022/05/17 02:28:03;;;;;;;5.70;3.07;;;16.80;99.90;;;;;;5023432;28;20228;-54
2022/05/17 02:30:31;;;;;;;4.50;2.80;;;16.80;99.90;;;;;;5018046;28;20316;-54
2022/05/17 02:32:58;;;;;;;8.90;3.13;;;16.80;99.90;;;;;;5018048;28;20316;-54
2022/05/17 02:35:25;;;;;;;5.87;2.90;;;16.80;99.90;;;;;;5021037;28;20249;-53
2022/05/17 02:37:52;;;;;;;8.33;3.60;;;16.80;99.90;;;;;;5016477;28;20294;-52
2022/05/17 02:40:19;;;;;;;5.77;2.90;;;16.70;99.90;;;;;;5017934;28;20208;-54
2022/05/17 02:42:45;;;;;;;4.90;2.97;;;16.70;99.90;;;;;;5020971;28;20299;-54
2022/05/17 02:45:12;;;;;;;6.80;3.00;;;16.60;99.90;;;;;;5018071;28;20193;-54
2022/05/17 02:47:39;;;;;;;5.90;3.30;;;16.60;99.90;;;;;;5020378;28;20201;-53
2022/05/17 02:50:09;;;;;;;4.80;3.00;;;16.70;99.90;;;;;;5017970;28;20219;-54
2022/05/17 02:52:37;;;;;;;9.40;3.20;;;16.70;99.90;;;;;;5018094;28;20204;-53
2022/05/17 02:55:05;;;;;;;5.40;2.83;;;16.70;99.90;;;;;;5017782;28;20304;-53
2022/05/17 02:57:32;;;;;;;4.97;3.17;;;16.60;99.90;;;;;;5017520;28;20243;-53
2022/05/17 02:59:59;;;;;;;6.83;3.87;;;16.60;99.90;;;;;;5021381;28;20306;-53
2022/05/17 03:02:26;;;;;;;9.30;3.40;;;16.50;99.90;;;;;;5022264;28;20634;-53
2022/05/17 03:04:53;;;;;;;5.97;3.27;;;16.50;99.90;;;;;;5023130;28;20214;-54
2022/05/17 03:07:20;;;;;;;7.07;4.03;;;16.50;99.90;;;;;;5024568;28;20290;-54
2022/05/17 03:09:47;;;;;;;5.97;3.00;;;16.40;99.90;;;;;;5017316;28;20216;-54
2022/05/17 03:12:14;;;;;;;5.07;3.30;;;16.40;99.90;;;;;;5021319;28;20201;-54
2022/05/17 03:14:40;;;;;;;9.33;3.50;;;16.40;99.90;;;;;;5021834;28;20705;-53
2022/05/17 03:17:12;;;;;;;8.80;3.23;;;16.40;99.90;;;;;;5024116;28;20273;-54
2022/05/17 03:19:40;;;;;;;9.17;3.70;;;16.40;99.90;;;;;;5019719;28;20214;-53
2022/05/17 03:22:08;;;;;;;8.17;3.50;;;16.40;99.90;;;;;;5023262;28;20282;-52
2022/05/17 03:24:35;;;;;;;6.63;3.50;;;16.40;99.90;;;;;;5020707;28;20223;-53
2022/05/17 03:27:21;;;;;;;6.80;3.40;;;16.40;99.90;;;;;;5023853;28;20200;-53
2022/05/17 03:29:48;;;;;;;7.47;3.70;;;16.40;99.90;;;;;;5021911;28;20665;-53
2022/05/17 03:32:15;;;;;;;9.10;4.07;;;16.40;99.90;;;;;;5021981;28;20264;-53
2022/05/17 03:34:42;;;;;;;6.83;3.53;;;16.40;99.90;;;;;;5019261;28;20236;-53
2022/05/17 03:37:09;;;;;;;5.63;4.10;;;16.40;99.90;;;;;;5021245;28;20627;-59
2022/05/17 03:39:36;;;;;;;9.23;4.63;;;16.40;99.90;;;;;;5024016;28;20254;-54
2022/05/17 03:42:03;;;;;;;6.27;4.67;;;16.50;99.90;;;;;;5025496;28;20736;-53
2022/05/17 03:44:29;;;;;;;5.77;3.80;;;16.40;99.90;;;;;;5022593;28;20228;-54
2022/05/17 03:46:56;;;;;;;9.77;4.07;;;16.40;99.90;;;;;;5027073;28;20374;-53
2022/05/17 03:49:23;;;;;;;5.33;3.47;;;16.30;99.90;;;;;;5020646;28;20288;-53
2022/05/17 03:51:50;;;;;;;9.97;4.03;;;16.40;99.90;;;;;;5019207;28;20216;-54
2022/05/17 03:54:22;;;;;;;7.57;4.03;;;16.30;99.90;;;;;;5021001;28;20240;-54
2022/05/17 03:56:49;;;;;;;8.07;4.00;;;16.30;99.90;;;;;;5021673;28;20213;-54
2022/05/17 03:59:15;;;;;;;6.03;3.87;;;16.30;99.90;;;;;;5021073;28;20201;-53
2022/05/17 04:01:44;;;;;;;6.53;3.90;;;16.40;99.90;;;;;;5024227;28;20204;-54
2022/05/17 04:04:12;;;;;;;11.63;4.73;;;16.40;99.90;;;;;;5020153;28;20199;-53
2022/05/17 04:06:39;;;;;;;4.37;3.83;;;16.40;99.90;;;;;;5021479;28;20288;-54
2022/05/17 04:09:06;;;;;;;9.13;3.67;;;16.50;99.90;;;;;;5021763;28;20212;-53
2022/05/17 04:11:34;;;;;;;6.73;4.10;;;16.50;99.90;;;;;;5019960;28;20214;-53
2022/05/17 04:14:02;;;;;;;7.90;4.17;;;16.50;99.90;;;;;;5020137;28;20238;-55
2022/05/17 04:16:33;;;;;;;9.93;4.40;;;16.50;99.90;;;;;;5021109;28;20208;-53
2022/05/17 04:19:00;;;;;;;7.20;3.93;;;16.50;99.90;;;;;;5012770;28;20201;-54
2022/05/17 04:21:30;;;;;;;8.47;3.73;;;16.40;99.90;;;;;;5016665;28;20558;-53
2022/05/17 04:23:57;;;;;;;9.10;5.10;;;16.40;99.90;;;;;;5019938;28;21792;-57
2022/05/17 04:26:24;;;;;;;9.23;4.30;;;16.40;99.90;;;;;;5020757;28;20280;-54
2022/05/17 04:28:51;;;;;;;6.80;4.37;;;16.40;99.90;;;;;;5015423;28;20655;-54
2022/05/17 04:31:18;;;;;;;8.57;4.90;;;16.40;99.90;;;;;;5022726;28;20283;-54
2022/05/17 04:33:45;;;;;;;9.60;4.53;;;16.50;99.90;;;;;;5023423;28;20202;-54
2022/05/17 04:36:12;;;;;;;6.23;4.50;;;16.60;99.90;;;;;;5024406;28;20210;-54
2022/05/17 04:38:38;;;;;;;8.10;5.10;;;16.50;99.90;;;;;;5020534;28;20291;-54
2022/05/17 04:41:05;;;;;;;9.43;4.93;;;16.50;99.90;;;;;;5019402;28;20217;-54
2022/05/17 04:43:32;;;;;;;10.03;4.73;;;16.50;99.90;;;;;;5020496;28;20228;-54
2022/05/17 04:45:59;;;;;;;10.90;5.00;;;16.50;99.90;;;;;;5021331;28;21990;-54
2022/05/17 04:48:26;;;;;;;10.10;5.10;;;16.40;99.90;;;;;;5022952;28;20211;-54
2022/05/17 04:50:53;;;;;;;6.30;4.57;;;16.50;99.90;;;;;;5020920;28;20202;-55
2022/05/17 04:53:26;;;;;;;7.90;4.63;;;16.50;99.90;;;;;;5019198;28;20203;-54
2022/05/17 04:55:53;;;;;;;8.20;4.77;;;16.60;99.90;;;;;;5015429;28;20692;-55
2022/05/17 04:58:20;;;;;;;6.30;4.30;;;16.70;99.90;;;;;;5019412;28;20730;-54
2022/05/17 05:00:47;;;;;;;9.00;4.77;;;16.80;99.90;;;;;;5017713;28;20732;-54
2022/05/17 05:03:15;;;;;;;7.20;4.97;;;16.80;99.90;;;;;;5021375;28;20248;-54
2022/05/17 05:05:41;;;;;;;8.07;4.60;;;16.80;99.90;;;;;;5024628;28;20332;-54
2022/05/17 05:08:08;;;;;;;9.10;5.20;;;16.80;99.90;;;;;;5023719;28;20608;-54
2022/05/17 05:10:35;;;;;;;9.30;4.80;;;16.90;99.90;;;;;;5016845;28;20267;-53
2022/05/17 05:13:02;;;;;;;8.17;4.87;;;17.00;99.90;;;;;;5024191;28;20266;-53
2022/05/17 05:15:31;;;;;;;9.53;5.20;;;17.00;99.90;;;;;;5018638;28;20202;-53
2022/05/17 05:17:58;;;;;;;11.97;5.23;;;16.90;99.90;;;;;;5022286;28;20560;-54
2022/05/17 05:20:25;;;;;;;6.73;4.80;;;16.90;99.90;;;;;;5017651;28;20217;-53
2022/05/17 05:22:52;;;;;;;9.87;5.03;;;16.90;99.90;;;;;;5020982;28;20246;-54
2022/05/17 05:25:19;;;;;;;9.33;5.93;;;16.80;99.90;;;;;;5020795;28;20202;-54
2022/05/17 05:27:47;;;;;;;7.23;5.57;;;16.90;99.90;;;;;;5018978;28;20681;-54
2022/05/17 05:30:16;;;;;;;9.60;5.67;;;16.90;99.90;;;;;;5016154;28;20234;-54
2022/05/17 05:32:43;;;;;;;9.80;5.47;;;17.00;99.90;;;;;;5019312;28;20749;-55
2022/05/17 05:35:10;;;;;;;14.37;5.20;;;16.90;99.90;;;;;;5014489;28;20210;-54
2022/05/17 05:37:37;;;;;;;8.73;5.70;;;16.90;99.90;;;;;;5018368;28;20228;-54
2022/05/17 05:40:07;;;;;;;12.20;5.60;;;17.10;99.90;;;;;;5024564;28;20764;-54
2022/05/17 05:42:33;;;;;;;8.90;5.97;;;17.10;99.90;;;;;;5028529;28;20204;-54
2022/05/17 05:45:01;;;;;;;7.93;5.50;;;16.90;99.90;;;;;;5027678;28;20227;-54
2022/05/17 05:47:27;;;;;;;8.93;5.57;;;16.90;99.90;;;;;;5022689;28;20239;-54
2022/05/17 05:49:54;;;;;;;9.60;5.43;;;17.00;99.90;;;;;;5019648;28;20557;-54
2022/05/17 05:52:21;;;;;;;10.77;5.87;;;17.00;99.90;;;;;;5032324;28;20251;-54
2022/05/17 05:54:48;;;;;;;12.37;5.97;;;17.10;99.90;;;;;;5010144;28;20409;-54
2022/05/17 05:57:15;;;;;;;9.83;5.70;;;17.10;99.90;;;;;;5014295;28;20207;-54
2022/05/17 05:59:42;;;;;;;10.67;6.07;;;16.90;99.90;;;;;;5012225;28;20232;-55
2022/05/17 06:02:10;;;;;;;10.40;6.23;;;16.80;99.90;;;;;;5011065;28;20251;-54
2022/05/17 06:04:38;;;;;;;10.63;6.37;;;16.80;99.90;;;;;;5010288;28;20201;-54
2022/05/17 06:07:05;;;;;;;9.50;5.60;;;17.00;99.90;;;;;;5013711;28;20196;-54
2022/05/17 06:09:32;;;;;;;12.87;6.80;;;17.00;99.90;;;;;;5012168;28;20291;-54
2022/05/17 06:11:59;;;;;;;9.23;6.00;;;17.20;99.90;;;;;;5014302;28;20641;-55
2022/05/17 06:14:27;;;;;;;12.03;6.40;;;17.10;99.90;;;;;;5013161;28;20228;-53
2022/05/17 06:16:54;;;;;;;7.57;5.87;;;17.10;99.90;;;;;;5012164;28;20335;-53
2022/05/17 06:19:23;;;;;;;12.00;6.10;;;17.20;99.90;;;;;;5012147;28;20975;-53
2022/05/17 06:21:50;;;;;;;11.27;6.43;;;17.10;99.90;;;;;;5016595;28;20279;-53
2022/05/17 06:24:17;;;;;;;11.33;6.40;;;17.00;99.90;;;;;;5016557;28;20242;-55
2022/05/17 06:26:44;;;;;;;9.57;5.93;;;17.20;99.90;;;;;;5019551;28;20647;-54
2022/05/17 06:29:11;;;;;;;15.47;7.00;;;17.30;99.90;;;;;;5016784;28;20614;-54
2022/05/17 06:31:38;;;;;;;8.67;5.97;;;17.30;99.90;;;;;;5015068;28;20724;-53
2022/05/17 06:34:05;;;;;;;10.43;6.07;;;17.30;99.90;;;;;;5022648;28;20215;-54
2022/05/17 06:36:32;;;;;;;11.43;6.00;;;17.30;99.90;;;;;;5019188;28;20734;-54
2022/05/17 06:39:18;;;;;;;8.50;6.30;;;17.40;99.90;;;;;;5018426;28;20209;-55
2022/05/17 06:41:45;;;;;;;10.97;6.13;;;17.40;99.90;;;;;;5022700;28;20299;-56
2022/05/17 06:44:12;;;;;;;11.10;7.03;;;17.50;99.90;;;;;;5020290;28;20243;-54
2022/05/17 06:46:39;;;;;;;9.07;5.73;;;17.30;99.90;;;;;;5019473;28;20700;-55
2022/05/17 06:49:06;;;;;;;12.63;6.03;;;17.30;99.90;;;;;;5017991;28;20262;-56
2022/05/17 06:51:35;;;;;;;11.00;6.03;;;17.20;99.90;;;;;;5018355;28;20617;-54
2022/05/17 06:54:02;;;;;;;10.80;6.90;;;17.20;99.90;;;;;;5020963;28;20577;-54
2022/05/17 06:56:29;;;;;;;9.83;6.13;;;17.20;99.90;;;;;;5021685;28;20209;-54
2022/05/17 06:58:56;;;;;;;31.47;22.07;;;17.30;99.90;;;;;;5024581;28;20247;-54
2022/05/17 07:01:23;;;;;;;11.00;8.27;;;17.40;99.90;;;;;;5019260;28;23967;-54
2022/05/17 07:03:50;;;;;;;11.57;7.07;;;17.50;99.90;;;;;;5022348;28;20275;-55
2022/05/17 07:06:17;;;;;;;9.77;6.00;;;17.40;99.90;;;;;;5021690;28;20304;-54
2022/05/17 07:08:44;;;;;;;11.30;6.50;;;17.50;99.90;;;;;;5017885;28;20243;-54
2022/05/17 07:13:56;;;;;;;11.87;6.70;;;17.60;99.90;;;;;;5022321;28;20220;-54
2022/05/17 07:16:24;;;;;;;10.17;6.73;;;17.60;99.90;;;;;;5018631;28;20208;-54
2022/05/17 07:18:51;;;;;;;11.80;6.07;;;17.70;99.90;;;;;;5020054;28;20689;-53
2022/05/17 07:21:37;;;;;;;11.27;6.53;;;17.70;99.90;;;;;;5016578;28;20562;-54
2022/05/17 07:24:04;;;;;;;14.10;6.83;;;17.60;99.90;;;;;;5020458;28;20226;-53
2022/05/17 07:26:31;;;;;;;10.70;6.80;;;17.80;99.90;;;;;;5020825;28;20291;-54
2022/05/17 07:28:58;;;;;;;12.17;6.20;;;17.80;99.90;;;;;;5033225;28;21060;-53
2022/05/17 07:31:25;;;;;;;13.30;6.90;;;17.80;99.90;;;;;;5017840;28;20403;-54
2022/05/17 07:33:52;;;;;;;11.57;6.57;;;17.90;99.90;;;;;;5023050;28;20203;-54
2022/05/17 07:36:19;;;;;;;9.03;6.50;;;17.90;99.90;;;;;;5020713;28;20206;-53
2022/05/17 07:38:47;;;;;;;11.50;6.33;;;17.90;99.90;;;;;;5016015;28;20248;-53
2022/05/17 07:41:14;;;;;;;13.80;7.13;;;17.90;99.90;;;;;;5020323;28;20213;-54
2022/05/17 07:43:40;;;;;;;14.53;8.33;;;18.00;99.90;;;;;;5021993;28;20233;-54
2022/05/17 07:46:07;;;;;;;13.40;6.97;;;18.10;99.90;;;;;;5020174;28;20238;-54
2022/05/17 07:48:35;;;;;;;11.47;7.40;;;18.10;99.90;;;;;;5025432;28;20252;-54
2022/05/17 07:51:02;;;;;;;13.33;7.90;;;18.10;99.90;;;;;;5021812;28;20209;-53
2022/05/17 07:53:30;;;;;;;10.37;7.03;;;18.00;99.90;;;;;;5015363;28;20199;-54
2022/05/17 07:55:57;;;;;;;12.37;8.10;;;18.10;99.90;;;;;;5021784;28;20261;-54
2022/05/17 07:58:25;;;;;;;12.90;8.23;;;18.10;99.90;;;;;;5020814;28;20725;-54
2022/05/17 08:00:53;;;;;;;13.20;8.87;;;18.30;99.90;;;;;;5026252;28;20293;-54
2022/05/17 08:03:21;;;;;;;12.20;8.20;;;18.20;99.90;;;;;;5026564;28;20240;-54
2022/05/17 08:05:51;;;;;;;10.30;7.23;;;18.20;99.90;;;;;;5024014;28;20199;-55
2022/05/17 08:08:18;;;;;;;11.83;6.97;;;18.20;99.90;;;;;;5020918;28;20292;-55
2022/05/17 08:10:44;;;;;;;11.87;7.80;;;18.30;99.90;;;;;;5022552;28;20900;-55
2022/05/17 08:13:13;;;;;;;12.33;7.80;;;18.40;99.90;;;;;;5021778;28;20298;-53
2022/05/17 08:15:40;;;;;;;9.17;7.37;;;18.50;99.90;;;;;;5023097;28;20280;-55
2022/05/17 08:18:07;;;;;;;7.87;7.03;;;18.50;99.90;;;;;;5018191;28;20692;-54
2022/05/17 08:20:35;;;;;;;10.53;7.50;;;18.50;99.90;;;;;;5017162;28;20307;-54
2022/05/17 08:23:02;;;;;;;12.20;7.70;;;18.60;99.90;;;;;;5022109;28;20220;-55
2022/05/17 08:28:14;;;;;;;9.00;6.47;;;18.50;99.90;;;;;;5016976;28;20610;-53
2022/05/17 08:30:42;;;;;;;9.80;7.03;;;18.50;99.90;;;;;;5020633;28;20622;-54
2022/05/17 08:33:17;;;;;;;10.13;6.83;;;18.60;99.90;;;;;;5027215;28;20291;-54
2022/05/17 08:36:01;;;;;;;10.47;6.30;;;18.50;99.90;;;;;;5024502;28;20758;-53
2022/05/17 08:38:36;;;;;;;13.03;7.17;;;18.50;99.90;;;;;;5015394;28;20208;-54
2022/05/17 08:41:28;;;;;;;11.93;7.03;;;18.60;99.90;;;;;;5018501;28;20337;-55
2022/05/17 08:44:02;;;;;;;16.00;8.03;;;18.60;99.90;;;;;;5017721;28;20224;-54
2022/05/17 08:47:06;;;;;;;11.13;5.90;;;18.60;99.90;;;;;;5020517;28;20610;-54
2022/05/17 08:49:55;;;;;;;10.13;5.30;;;18.60;99.90;;;;;;5016393;28;20200;-54
2022/05/17 08:52:24;;;;;;;10.03;6.07;;;18.60;99.90;;;;;;5024441;28;20341;-54
2022/05/17 08:54:59;;;;;;;11.57;5.70;;;18.60;99.90;;;;;;5029441;28;20288;-54
2022/05/17 08:57:48;;;;;;;12.20;5.27;;;18.60;99.90;;;;;;5027145;28;20612;-54
2022/05/17 09:00:23;;;;;;;10.73;5.70;;;18.60;99.90;;;;;;5024321;28;20283;-54
2022/05/17 09:02:59;;;;;;;8.83;4.83;;;18.70;99.90;;;;;;5024838;28;20568;-54
2022/05/17 09:05:51;;;;;;;8.73;4.30;;;18.70;99.90;;;;;;5039333;28;20204;-54
2022/05/17 09:08:33;;;;;;;15.20;4.60;;;18.90;99.90;;;;;;5018072;28;20238;-54
2022/05/17 09:11:19;;;;;;;12.43;4.53;;;18.80;99.90;;;;;;5027619;28;20579;-54
2022/05/17 09:14:07;;;;;;;8.57;3.97;;;18.80;99.90;;;;;;5027090;28;20226;-54
2022/05/17 09:16:42;;;;;;;9.73;4.63;;;19.00;99.90;;;;;;5024535;28;20597;-54
2022/05/17 09:19:09;;;;;;;9.87;3.80;;;19.10;99.90;;;;;;5015359;28;20209;-54
2022/05/17 09:21:39;;;;;;;7.00;3.57;;;19.10;99.90;;;;;;5023414;28;20688;-54
2022/05/17 09:24:13;;;;;;;8.60;3.80;;;19.30;99.90;;;;;;5024068;28;20687;-53
2022/05/17 09:26:47;;;;;;;12.60;4.37;;;19.40;99.90;;;;;;5018408;28;20649;-54
2022/05/17 09:29:21;;;;;;;9.10;3.60;;;19.50;99.90;;;;;;5022423;28;20274;-54
2022/05/17 09:32:07;;;;;;;9.73;3.13;;;20.00;99.90;;;;;;5015940;28;20225;-54
2022/05/17 09:34:41;;;;;;;9.33;2.97;;;20.40;99.90;;;;;;5021109;28;20253;-57
2022/05/17 09:37:15;;;;;;;9.57;3.37;;;20.50;99.90;;;;;;5028224;28;20228;-54
2022/05/17 09:39:51;;;;;;;6.27;3.00;;;20.70;99.90;;;;;;5017498;28;20208;-54
2022/05/17 09:42:31;;;;;;;6.27;3.73;;;20.50;99.90;;;;;;5016599;28;20231;-53
2022/05/17 09:45:06;;;;;;;9.53;4.10;;;20.40;99.90;;;;;;5016605;28;20228;-54
2022/05/17 09:47:40;;;;;;;8.83;3.87;;;20.30;99.90;;;;;;5023665;28;20730;-54
2022/05/17 09:53:10;;;;;;;6.97;3.77;;;20.20;99.90;;;;;;5022414;28;22358;-54
2022/05/17 09:55:37;;;;;;;7.57;4.47;;;20.20;99.90;;;;;;5012552;28;20201;-54
2022/05/17 09:58:07;;;;;;;7.33;3.27;;;20.40;99.90;;;;;;5019212;28;20237;-54
2022/05/17 10:00:43;;;;;;;8.30;3.07;;;20.60;99.90;;;;;;5023473;28;20331;-55
2022/05/17 10:03:12;;;;;;;5.40;2.40;;;20.50;99.90;;;;;;5024026;28;20237;-54
2022/05/17 10:05:40;;;;;;;7.80;2.70;;;20.60;99.90;;;;;;5019109;28;20207;-53
2022/05/17 10:08:13;;;;;;;7.70;2.53;;;20.80;99.90;;;;;;5024933;28;20284;-53
2022/05/17 10:10:47;;;;;;;3.97;2.63;;;20.80;99.90;;;;;;5015520;28;20232;-54
2022/05/17 10:13:32;;;;;;;7.27;2.60;;;21.10;99.90;;;;;;5021526;28;20499;-53
2022/05/17 10:16:10;;;;;;;6.60;3.27;;;21.20;99.90;;;;;;5019148;28;20197;-54
2022/05/17 10:18:53;;;;;;;5.70;2.43;;;21.20;99.90;;;;;;5017327;28;20639;-54
2022/05/17 10:21:38;;;;;;;6.23;2.60;;;21.20;99.90;;;;;;5022746;28;20252;-54
2022/05/17 10:24:29;;;;;;;5.43;2.40;;;21.40;99.90;;;;;;5023640;28;20660;-55
2022/05/17 10:27:09;;;;;;;5.57;2.20;;;21.40;99.90;;;;;;5028642;28;20200;-57
2022/05/17 10:29:45;;;;;;;5.23;2.20;;;21.50;99.90;;;;;;5028867;28;20607;-54
2022/05/17 10:32:21;;;;;;;7.97;2.60;;;21.60;99.90;;;;;;5029061;28;20278;-54
2022/05/17 10:35:22;;;;;;;6.57;2.37;;;21.50;99.90;;;;;;5026066;28;20212;-54
2022/05/17 10:38:04;;;;;;;6.57;2.57;;;21.60;99.90;;;;;;5025363;28;20210;-54
2022/05/17 10:40:34;;;;;;;5.10;2.60;;;21.50;99.90;;;;;;5026551;28;20214;-54
2022/05/17 10:43:03;;;;;;;6.33;3.17;;;21.50;99.90;;;;;;5024628;28;20244;-54
2022/05/17 10:45:32;;;;;;;8.63;3.57;;;21.80;99.90;;;;;;5027909;28;20197;-54
2022/05/17 10:48:11;;;;;;;7.13;3.17;;;22.00;99.90;;;;;;5026477;28;20243;-55
2022/05/17 10:51:06;;;;;;;5.33;3.10;;;22.00;99.90;;;;;;5025607;28;20600;-54
2022/05/17 10:54:09;;;;;;;6.10;3.03;;;21.90;99.90;;;;;;5013537;28;20645;-54
2022/05/17 10:57:04;;;;;;;7.50;3.13;;;22.00;99.90;;;;;;5026674;28;20215;-54
2022/05/17 10:59:37;;;;;;;4.37;3.17;;;22.30;99.90;;;;;;5027615;28;20658;-54
2022/05/17 11:02:34;;;;;;;7.73;3.03;;;22.30;99.90;;;;;;5026410;28;20212;-55
2022/05/17 11:05:34;;;;;;;7.07;2.83;;;22.60;99.90;;;;;;5023657;28;20204;-56
2022/05/17 11:08:28;;;;;;;7.93;3.03;;;22.70;99.90;;;;;;5022032;28;20652;-55
2022/05/17 11:11:30;;;;;;;4.93;2.60;;;22.80;99.90;;;;;;5017050;28;20197;-55
2022/05/17 11:14:07;;;;;;;5.77;2.70;;;22.40;99.90;;;;;;5030197;28;20357;-55
2022/05/17 11:16:52;;;;;;;5.13;3.17;;;22.90;99.90;;;;;;5022163;28;20233;-55
2022/05/17 11:19:44;;;;;;;6.87;2.97;;;23.30;99.90;;;;;;5021439;28;20203;-54
2022/05/17 11:22:32;;;;;;;7.00;3.13;;;23.70;99.90;;;;;;5027567;28;20316;-55
2022/05/17 11:25:08;;;;;;;9.00;3.90;;;23.50;99.90;;;;;;5029019;28;20203;-56
2022/05/17 11:28:03;;;;;;;3.83;2.77;;;23.40;99.90;;;;;;5027599;28;20205;-54
2022/05/17 11:30:43;;;;;;;6.47;3.43;;;23.70;99.90;;;;;;5026983;28;20316;-57
2022/05/17 11:33:12;;;;;;;6.40;3.77;;;23.60;99.90;;;;;;5031401;28;20204;-55
2022/05/17 11:35:51;;;;;;;6.80;3.37;;;24.10;99.90;;;;;;5029494;28;20200;-54
2022/05/17 11:38:32;;;;;;;6.47;3.70;;;24.40;99.90;;;;;;5028030;28;20310;-55
2022/05/17 11:41:03;;;;;;;8.50;4.57;;;24.50;99.90;;;;;;5030877;28;20592;-54
2022/05/17 11:43:54;;;;;;;7.60;3.90;;;24.60;99.90;;;;;;5031409;28;20262;-55
2022/05/17 11:46:24;;;;;;;5.80;4.53;;;24.70;99.90;;;;;;5023391;28;20618;-54
2022/05/17 11:49:01;;;;;;;5.80;3.93;;;24.40;99.90;;;;;;5017172;28;20199;-55
2022/05/17 11:51:38;;;;;;;7.17;4.73;;;24.60;99.90;;;;;;5022380;28;20303;-54
2022/05/17 11:54:10;;;;;;;9.03;4.93;;;24.70;99.90;;;;;;5014408;28;20299;-54
2022/05/17 11:56:39;;;;;;;9.07;5.10;;;25.00;99.90;;;;;;5020021;28;20669;-55
2022/05/17 11:59:12;;;;;;;6.80;4.97;;;25.10;99.90;;;;;;5023503;28;20267;-56
2022/05/17 12:01:39;;;;;;;8.40;5.20;;;25.40;99.90;;;;;;5024046;28;20287;-55
2022/05/17 12:04:28;;;;;;;7.07;4.70;;;25.80;99.90;;;;;;5017092;28;20181;-55
2022/05/17 12:06:55;;;;;;;6.30;4.83;;;25.60;99.90;;;;;;5018273;28;20641;-63
2022/05/17 12:09:30;;;;;;;9.97;5.57;;;25.60;99.90;;;;;;5020010;28;20208;-65
2022/05/17 12:12:09;;;;;;;10.17;6.10;;;25.70;99.90;;;;;;5021426;28;20254;-64
2022/05/17 12:15:03;;;;;;;9.10;6.00;;;26.00;99.90;;;;;;5024507;28;20271;-66
2022/05/17 12:17:37;;;;;;;9.33;5.70;;;25.90;99.90;;;;;;5026946;28;20205;-63
2022/05/17 12:20:10;;;;;;;8.13;5.07;;;25.80;99.90;;;;;;5022675;28;20296;-62
2022/05/17 12:22:50;;;;;;;7.50;4.80;;;25.80;99.90;;;;;;5016596;28;20351;-63
2022/05/17 12:25:43;;;;;;;8.33;4.40;;;25.90;99.90;;;;;;5019254;28;20650;-65
2022/05/17 12:28:34;;;;;;;7.63;3.80;;;26.20;99.90;;;;;;5021130;28;20204;-63
2022/05/17 12:31:05;;;;;;;5.60;2.90;;;26.20;99.90;;;;;;5023447;28;20204;-63
2022/05/17 12:33:36;;;;;;;4.83;2.80;;;26.40;99.90;;;;;;5026765;28;20219;-63
2022/05/17 12:36:14;;;;;;;8.87;3.40;;;26.50;99.90;;;;;;5022788;28;20287;-65
2022/05/17 12:44:23;;;;;;;3.93;2.27;;;26.30;99.90;;;;;;5016084;28;20205;-63
2022/05/17 12:46:54;;;;;;;7.27;2.80;;;26.30;99.90;;;;;;5023812;28;20699;-66
2022/05/17 12:49:29;;;;;;;6.90;2.00;;;26.20;99.90;;;;;;5014063;28;20200;-64
2022/05/17 12:52:18;;;;;;;4.80;2.53;;;26.60;99.90;;;;;;5015185;28;20232;-64
2022/05/17 12:54:49;;;;;;;4.57;1.67;;;26.70;99.90;;;;;;5018479;28;20225;-63
2022/05/17 12:57:21;;;;;;;7.03;2.10;;;27.20;99.90;;;;;;5017370;28;20304;-63
2022/05/17 12:59:48;;;;;;;4.10;2.03;;;27.00;99.90;;;;;;5015141;28;20528;-63
2022/05/17 13:02:24;;;;;;;7.57;2.70;;;27.10;99.90;;;;;;5018503;28;20700;-65
2022/05/17 13:04:51;;;;;;;3.85;2.00;;;27.50;99.90;;;;;;5018894;28;20204;-64
2022/05/17 13:07:21;;;;;;;6.63;2.03;;;27.60;99.90;;;;;;5013090;28;20609;-64
2022/05/17 13:10:06;;;;;;;6.15;2.10;;;27.20;99.90;;;;;;5010786;28;20275;-64
2022/05/17 13:12:38;;;;;;;3.17;2.10;;;26.70;99.90;;;;;;5013870;28;20294;-65
2022/05/17 13:15:07;;;;;;;3.65;1.70;;;26.90;99.90;;;;;;5014628;28;20205;-63
2022/05/17 13:17:38;;;;;;;5.43;2.47;;;27.40;99.90;;;;;;5016805;28;21074;-63
2022/05/17 13:20:14;;;;;;;4.15;2.00;;;26.90;99.90;;;;;;5016469;28;20859;-64
2022/05/17 13:22:43;;;;;;;5.53;1.90;;;26.90;99.90;;;;;;5015974;28;20227;-63
2022/05/17 13:25:20;;;;;;;4.53;1.83;;;26.70;99.90;;;;;;5026503;28;20627;-63